Time;durP1;ratioP1;P1;durP2;ratioP2;P2;SDS_P1;SDS_P2;PMS_P1;PMS_P2;Temp;Humidity;BMP_temperature;BMP_pressure;BME280_temperature;BME280_humidity;BME280_pressure;Samples;Min_cycle;Max_cycle;Signal;HPM_P1;HPM_P2
2021/06/14 00:01:17;;;;;;;9.57;3.73;;;;;;;;;;5117833;27;20442;-70
2021/06/14 00:03:47;;;;;;;8.00;3.57;;;;;;;;;;5110876;28;20455;-70
2021/06/14 00:06:20;;;;;;;9.03;4.33;;;;;;;;;;5097531;28;20487;-70
2021/06/14 00:09:03;;;;;;;6.47;3.47;;;;;;;;;;5099251;28;20464;-70
2021/06/14 00:11:31;;;;;;;9.20;3.17;;;;;;;;;;5116883;27;20567;-71
2021/06/14 00:13:59;;;;;;;6.73;3.17;;;;;;;;;;5117591;27;20454;-70
2021/06/14 00:16:28;;;;;;;6.20;3.20;;;;;;;;;;5116706;27;20473;-71
2021/06/14 00:19:26;;;;;;;6.07;3.17;;;;;;;;;;5116493;27;20461;-70
2021/06/14 00:22:09;;;;;;;6.97;3.63;;;;;;;;;;5113783;27;20463;-71
2021/06/14 00:24:37;;;;;;;8.63;3.80;;;;;;;;;;5115964;27;20543;-71
2021/06/14 00:27:06;;;;;;;9.23;4.23;;;;;;;;;;5115525;28;20528;-71
2021/06/14 00:29:35;;;;;;;7.27;3.57;;;;;;;;;;5105484;28;20491;-70
2021/06/14 00:32:04;;;;;;;7.90;3.97;;;;;;;;;;5117238;27;20455;-70
2021/06/14 00:34:33;;;;;;;12.90;3.67;;;;;;;;;;5117993;27;20845;-70
2021/06/14 00:37:04;;;;;;;5.77;3.20;;;;;;;;;;5117404;27;20565;-70
2021/06/14 00:39:31;;;;;;;10.57;3.50;;;;;;;;;;5117457;27;20458;-70
2021/06/14 00:42:02;;;;;;;10.10;3.40;;;;;;;;;;5117492;27;20873;-70
2021/06/14 00:44:31;;;;;;;8.50;3.30;;;;;;;;;;5117542;27;20481;-70
2021/06/14 00:47:00;;;;;;;7.90;3.47;;;;;;;;;;5117249;27;20516;-70
2021/06/14 00:49:38;;;;;;;6.43;3.30;;;;;;;;;;5106433;28;20534;-70
2021/06/14 00:52:09;;;;;;;7.43;3.53;;;;;;;;;;5097518;28;20459;-70
2021/06/14 00:54:43;;;;;;;7.63;3.33;;;;;;;;;;5097190;28;20972;-70
2021/06/14 00:57:28;;;;;;;7.80;3.50;;;;;;;;;;5097036;28;20780;-70
2021/06/14 01:00:03;;;;;;;9.00;3.77;;;;;;;;;;5112314;27;20454;-71
2021/06/14 01:02:31;;;;;;;7.83;4.87;;;;;;;;;;5102118;27;20462;-70
2021/06/14 01:05:05;;;;;;;12.00;4.40;;;;;;;;;;5119385;27;20478;-70
2021/06/14 01:07:35;;;;;;;11.17;5.00;;;;;;;;;;5119007;27;20819;-70
2021/06/14 01:10:03;;;;;;;6.97;4.40;;;;;;;;;;5119815;27;20457;-70
2021/06/14 01:12:36;;;;;;;14.23;3.83;;;;;;;;;;5118263;27;20529;-70
2021/06/14 01:15:08;;;;;;;6.03;3.20;;;;;;;;;;5121253;27;20457;-70
2021/06/14 01:17:47;;;;;;;7.77;4.13;;;;;;;;;;5119559;27;20482;-70
2021/06/14 01:20:27;;;;;;;9.20;3.90;;;;;;;;;;5120286;27;20454;-70
2021/06/14 01:23:13;;;;;;;8.10;4.20;;;;;;;;;;5120382;27;20508;-70
2021/06/14 01:25:46;;;;;;;10.57;4.03;;;;;;;;;;5120011;27;20450;-70
2021/06/14 01:28:16;;;;;;;5.60;3.07;;;;;;;;;;5119253;27;20768;-70
2021/06/14 01:30:44;;;;;;;7.47;3.90;;;;;;;;;;5121257;27;20477;-70
2021/06/14 01:33:13;;;;;;;10.20;3.57;;;;;;;;;;5120700;27;20873;-70
2021/06/14 01:35:46;;;;;;;11.87;4.90;;;;;;;;;;5120209;27;20454;-70
2021/06/14 01:38:14;;;;;;;10.43;4.20;;;;;;;;;;5120534;27;20549;-70
2021/06/14 01:40:42;;;;;;;9.33;3.23;;;;;;;;;;5113990;27;20532;-70
2021/06/14 01:43:11;;;;;;;7.03;4.07;;;;;;;;;;5101290;27;20817;-70
2021/06/14 01:45:41;;;;;;;8.53;3.57;;;;;;;;;;5114959;27;20465;-69
2021/06/14 01:48:10;;;;;;;8.60;3.73;;;;;;;;;;5120363;27;20459;-70
2021/06/14 01:50:38;;;;;;;6.90;4.10;;;;;;;;;;5106368;27;20965;-70
2021/06/14 01:53:06;;;;;;;6.27;3.40;;;;;;;;;;5100529;27;20475;-69
2021/06/14 01:55:34;;;;;;;8.50;3.40;;;;;;;;;;5113746;27;20469;-69
2021/06/14 01:58:03;;;;;;;9.70;4.00;;;;;;;;;;5121384;27;20747;-69
2021/06/14 02:00:31;;;;;;;7.30;4.00;;;;;;;;;;5121089;27;20488;-70
2021/06/14 02:03:01;;;;;;;11.90;3.53;;;;;;;;;;5120383;27;20830;-70
2021/06/14 02:05:32;;;;;;;9.13;3.53;;;;;;;;;;5119535;27;20459;-70
2021/06/14 02:08:01;;;;;;;6.47;3.37;;;;;;;;;;5115342;27;20465;-70
2021/06/14 02:10:29;;;;;;;8.97;4.07;;;;;;;;;;5119548;27;20454;-70
2021/06/14 02:12:57;;;;;;;6.17;3.30;;;;;;;;;;5119516;27;20455;-70
2021/06/14 02:15:25;;;;;;;7.50;4.43;;;;;;;;;;5118820;27;20497;-70
2021/06/14 02:17:57;;;;;;;7.80;3.70;;;;;;;;;;5119190;27;20478;-70
2021/06/14 02:20:26;;;;;;;15.00;4.27;;;;;;;;;;5119990;27;20467;-70
2021/06/14 02:22:54;;;;;;;7.93;3.87;;;;;;;;;;5118791;27;20471;-70
2021/06/14 02:25:22;;;;;;;7.70;3.87;;;;;;;;;;5119213;27;20899;-70
2021/06/14 02:27:50;;;;;;;12.13;5.00;;;;;;;;;;5118985;27;21003;-70
2021/06/14 02:30:19;;;;;;;7.60;3.90;;;;;;;;;;5119022;27;20909;-69
2021/06/14 02:32:47;;;;;;;6.70;3.23;;;;;;;;;;5119470;27;20519;-70
2021/06/14 02:35:15;;;;;;;9.90;4.33;;;;;;;;;;5110289;27;20708;-70
2021/06/14 02:37:46;;;;;;;10.70;4.60;;;;;;;;;;5118613;27;20547;-70
2021/06/14 02:40:14;;;;;;;8.67;4.37;;;;;;;;;;5118612;27;20488;-70
2021/06/14 02:42:44;;;;;;;7.07;4.30;;;;;;;;;;5119480;27;20479;-70
2021/06/14 02:45:14;;;;;;;5.50;3.70;;;;;;;;;;5118394;27;20598;-69
2021/06/14 02:47:42;;;;;;;9.53;4.50;;;;;;;;;;5098781;28;20451;-69
2021/06/14 02:50:10;;;;;;;7.00;4.10;;;;;;;;;;5112512;27;20524;-69
2021/06/14 02:52:39;;;;;;;7.10;4.20;;;;;;;;;;5118854;27;20467;-70
2021/06/14 02:55:12;;;;;;;12.80;4.60;;;;;;;;;;5118797;27;20870;-70
2021/06/14 02:57:40;;;;;;;8.20;3.70;;;;;;;;;;5118791;27;20577;-71
2021/06/14 03:00:09;;;;;;;8.17;5.20;;;;;;;;;;5118534;27;20906;-70
2021/06/14 03:02:38;;;;;;;8.03;4.30;;;;;;;;;;5118604;27;20463;-70
2021/06/14 03:05:06;;;;;;;9.97;4.43;;;;;;;;;;5118081;27;20917;-70
2021/06/14 03:07:34;;;;;;;5.93;3.40;;;;;;;;;;5112731;27;20516;-69
2021/06/14 03:10:02;;;;;;;6.33;3.43;;;;;;;;;;5119075;27;20541;-70
2021/06/14 03:12:32;;;;;;;7.07;4.37;;;;;;;;;;5118738;27;20476;-70
2021/06/14 03:14:59;;;;;;;7.40;3.70;;;;;;;;;;5118761;27;20498;-70
2021/06/14 03:17:27;;;;;;;6.50;3.80;;;;;;;;;;5117540;27;20595;-71
2021/06/14 03:19:57;;;;;;;7.23;4.23;;;;;;;;;;5118598;27;20462;-70
2021/06/14 03:22:25;;;;;;;6.83;4.47;;;;;;;;;;5117197;27;20927;-70
2021/06/14 03:24:53;;;;;;;9.27;3.87;;;;;;;;;;5117958;27;20527;-70
2021/06/14 03:27:21;;;;;;;10.27;4.10;;;;;;;;;;5117176;27;20808;-70
2021/06/14 03:29:53;;;;;;;7.03;3.80;;;;;;;;;;5117464;27;20557;-70
2021/06/14 03:32:21;;;;;;;7.20;4.13;;;;;;;;;;5117502;27;20516;-70
2021/06/14 03:34:49;;;;;;;8.80;4.23;;;;;;;;;;5118574;27;21051;-70
2021/06/14 03:37:20;;;;;;;6.37;4.00;;;;;;;;;;5116832;27;20936;-72
2021/06/14 03:39:48;;;;;;;6.37;3.80;;;;;;;;;;5117864;27;20564;-70
2021/06/14 03:42:18;;;;;;;12.50;4.67;;;;;;;;;;5117205;27;20490;-70
2021/06/14 03:44:48;;;;;;;10.33;4.47;;;;;;;;;;5117992;27;20472;-70
2021/06/14 03:47:17;;;;;;;9.23;3.90;;;;;;;;;;5114609;27;20465;-70
2021/06/14 03:49:45;;;;;;;9.40;3.70;;;;;;;;;;5117897;27;20463;-70
2021/06/14 03:52:13;;;;;;;6.00;3.80;;;;;;;;;;5117000;27;20858;-70
2021/06/14 03:54:40;;;;;;;10.43;4.20;;;;;;;;;;5117560;27;21063;-70
2021/06/14 03:57:08;;;;;;;9.67;4.00;;;;;;;;;;5117578;27;20569;-70
2021/06/14 03:59:38;;;;;;;7.27;4.10;;;;;;;;;;5118089;27;20475;-70
2021/06/14 04:02:06;;;;;;;10.10;4.40;;;;;;;;;;5117761;27;20489;-70
2021/06/14 04:04:44;;;;;;;7.43;4.07;;;;;;;;;;5117068;27;20569;-70
2021/06/14 04:07:12;;;;;;;6.40;4.00;;;;;;;;;;5117694;27;20557;-70
2021/06/14 04:09:42;;;;;;;7.63;4.00;;;;;;;;;;5116609;27;20451;-70
2021/06/14 04:12:11;;;;;;;8.37;4.53;;;;;;;;;;5117003;27;20491;-71
2021/06/14 04:14:40;;;;;;;8.00;3.97;;;;;;;;;;5117257;27;20962;-70
2021/06/14 04:17:07;;;;;;;7.67;4.00;;;;;;;;;;5116413;27;20474;-70
2021/06/14 04:19:37;;;;;;;7.80;4.27;;;;;;;;;;5117401;27;20894;-70
2021/06/14 04:22:05;;;;;;;11.53;4.87;;;;;;;;;;5117904;27;20959;-70
2021/06/14 04:24:33;;;;;;;7.43;3.80;;;;;;;;;;5116440;27;20447;-70
2021/06/14 04:27:01;;;;;;;8.03;4.23;;;;;;;;;;5117533;27;20450;-71
2021/06/14 04:29:29;;;;;;;9.53;4.03;;;;;;;;;;5113973;27;20519;-71
2021/06/14 04:31:57;;;;;;;6.00;3.90;;;;;;;;;;5113711;27;20457;-70
2021/06/14 04:34:25;;;;;;;7.00;3.77;;;;;;;;;;5116263;27;20541;-70
2021/06/14 04:36:55;;;;;;;8.20;4.83;;;;;;;;;;5116170;27;20983;-70
2021/06/14 04:39:22;;;;;;;7.03;4.70;;;;;;;;;;5118645;27;20634;-70
2021/06/14 04:41:50;;;;;;;8.80;4.47;;;;;;;;;;5120260;27;20478;-70
2021/06/14 04:44:18;;;;;;;10.53;4.20;;;;;;;;;;5119844;27;20709;-71
2021/06/14 04:46:46;;;;;;;12.37;4.73;;;;;;;;;;5121024;27;20538;-70
2021/06/14 04:49:16;;;;;;;9.10;3.90;;;;;;;;;;5120727;27;20745;-70
2021/06/14 04:51:44;;;;;;;5.77;3.90;;;;;;;;;;5120448;27;20546;-70
2021/06/14 04:54:16;;;;;;;9.17;4.20;;;;;;;;;;5119116;27;20866;-70
2021/06/14 04:56:44;;;;;;;7.07;3.33;;;;;;;;;;5119717;27;20459;-71
2021/06/14 04:59:12;;;;;;;5.90;3.67;;;;;;;;;;5120094;27;20619;-69
2021/06/14 05:01:40;;;;;;;5.70;3.90;;;;;;;;;;5119589;27;20454;-70
2021/06/14 05:04:08;;;;;;;7.20;3.57;;;;;;;;;;5119207;27;20741;-70
2021/06/14 05:06:36;;;;;;;6.13;3.40;;;;;;;;;;5119464;27;20837;-69
2021/06/14 05:09:04;;;;;;;7.60;3.23;;;;;;;;;;5119446;27;20454;-70
2021/06/14 05:11:34;;;;;;;6.13;2.97;;;;;;;;;;5119694;27;20549;-70
2021/06/14 05:14:03;;;;;;;4.47;3.13;;;;;;;;;;5109840;28;20440;-70
2021/06/14 05:19:19;;;;;;;5.53;3.37;;;;;;;;;;5095510;28;20447;-70
2021/06/14 05:21:46;;;;;;;5.97;3.37;;;;;;;;;;5095600;28;20777;-70
2021/06/14 05:24:18;;;;;;;4.87;2.60;;;;;;;;;;5096005;28;20486;-70
2021/06/14 05:26:51;;;;;;;4.87;2.90;;;;;;;;;;5115503;27;20519;-70
2021/06/14 05:29:21;;;;;;;6.87;3.43;;;;;;;;;;5117170;27;20843;-70
2021/06/14 05:31:52;;;;;;;5.83;2.70;;;;;;;;;;5117621;27;20930;-70
2021/06/14 05:34:20;;;;;;;5.40;2.77;;;;;;;;;;5115909;27;20493;-70
2021/06/14 05:36:48;;;;;;;6.17;3.30;;;;;;;;;;5116407;27;20458;-70
2021/06/14 05:39:16;;;;;;;5.13;3.30;;;;;;;;;;5097365;28;20556;-70
2021/06/14 05:41:43;;;;;;;7.03;2.87;;;;;;;;;;5096687;28;20450;-70
2021/06/14 05:44:13;;;;;;;5.20;3.47;;;;;;;;;;5095252;28;20783;-70
2021/06/14 05:46:41;;;;;;;7.03;4.00;;;;;;;;;;5096229;28;20917;-70
2021/06/14 05:49:08;;;;;;;6.90;3.57;;;;;;;;;;5095492;28;20459;-69
2021/06/14 05:51:38;;;;;;;5.37;2.87;;;;;;;;;;5094556;28;20550;-69
2021/06/14 05:54:07;;;;;;;8.33;3.30;;;;;;;;;;5098440;27;20463;-69
2021/06/14 05:56:37;;;;;;;6.43;3.07;;;;;;;;;;5118208;27;20557;-69
2021/06/14 05:59:05;;;;;;;10.60;3.70;;;;;;;;;;5117740;27;20519;-70
2021/06/14 06:01:34;;;;;;;4.50;2.87;;;;;;;;;;5118017;27;20498;-70
2021/06/14 06:04:02;;;;;;;4.93;3.47;;;;;;;;;;5116633;27;20877;-69
2021/06/14 06:09:33;;;;;;;6.03;3.17;;;;;;;;;;5109411;27;20414;-70
2021/06/14 06:12:03;;;;;;;5.63;3.23;;;;;;;;;;5113519;27;20900;-71
2021/06/14 06:14:30;;;;;;;7.13;3.30;;;;;;;;;;5117164;27;20519;-69
2021/06/14 06:16:59;;;;;;;7.30;3.50;;;;;;;;;;5116196;27;20795;-70
2021/06/14 06:19:28;;;;;;;4.93;3.00;;;;;;;;;;5117322;27;20491;-71
2021/06/14 06:21:56;;;;;;;4.23;2.47;;;;;;;;;;5117551;27;20453;-70
2021/06/14 06:24:26;;;;;;;6.77;3.10;;;;;;;;;;5116744;27;20926;-71
2021/06/14 06:26:53;;;;;;;4.87;2.97;;;;;;;;;;5117898;27;20527;-71
2021/06/14 06:29:21;;;;;;;6.07;2.93;;;;;;;;;;5117600;27;20567;-70
2021/06/14 06:31:49;;;;;;;4.93;3.03;;;;;;;;;;5126143;27;20752;-69
2021/06/14 06:34:18;;;;;;;8.73;3.00;;;;;;;;;;5128093;27;20530;-71
2021/06/14 06:36:46;;;;;;;4.57;3.10;;;;;;;;;;5116958;27;20474;-71
2021/06/14 06:39:19;;;;;;;12.47;3.70;;;;;;;;;;5117334;27;20578;-71
2021/06/14 06:41:53;;;;;;;7.60;3.10;;;;;;;;;;5116637;27;20811;-70
2021/06/14 06:44:21;;;;;;;7.80;3.10;;;;;;;;;;5116364;27;20550;-71
2021/06/14 06:46:52;;;;;;;8.87;3.50;;;;;;;;;;5117632;27;20488;-71
2021/06/14 06:49:21;;;;;;;16.60;3.60;;;;;;;;;;5115530;27;20543;-70
2021/06/14 06:51:51;;;;;;;7.50;2.90;;;;;;;;;;5110606;27;20520;-71
2021/06/14 06:54:24;;;;;;;9.07;3.67;;;;;;;;;;5120102;27;20531;-70
2021/06/14 06:56:58;;;;;;;6.20;3.13;;;;;;;;;;5115420;27;20457;-70
2021/06/14 06:59:26;;;;;;;6.40;3.40;;;;;;;;;;5116056;27;20485;-70
2021/06/14 07:01:55;;;;;;;7.37;3.17;;;;;;;;;;5106774;27;20482;-70
2021/06/14 07:04:32;;;;;;;5.90;2.90;;;;;;;;;;5110588;28;20459;-70
2021/06/14 07:07:00;;;;;;;8.63;3.90;;;;;;;;;;5103812;27;21026;-70
2021/06/14 07:09:28;;;;;;;5.87;2.60;;;;;;;;;;5106189;28;20463;-70
2021/06/14 07:14:40;;;;;;;7.57;2.83;;;;;;;;;;5106166;27;20457;-69
2021/06/14 07:17:08;;;;;;;5.90;2.60;;;;;;;;;;5115022;27;20503;-69
2021/06/14 07:19:37;;;;;;;5.33;3.57;;;;;;;;;;5114762;27;20547;-69
2021/06/14 07:22:07;;;;;;;6.97;3.03;;;;;;;;;;5115904;27;20487;-70
2021/06/14 07:24:36;;;;;;;6.40;2.90;;;;;;;;;;5093921;27;20539;-71
2021/06/14 07:27:03;;;;;;;5.83;3.00;;;;;;;;;;5114726;27;20467;-70
2021/06/14 07:29:31;;;;;;;5.60;2.83;;;;;;;;;;5112308;27;20506;-70
2021/06/14 07:31:59;;;;;;;5.97;3.40;;;;;;;;;;5106093;28;20878;-70
2021/06/14 07:34:27;;;;;;;6.43;3.10;;;;;;;;;;5104766;27;20559;-71
2021/06/14 07:37:05;;;;;;;7.57;3.13;;;;;;;;;;5115117;27;20455;-71
2021/06/14 07:39:40;;;;;;;6.40;3.50;;;;;;;;;;5116143;27;20486;-72
2021/06/14 07:42:09;;;;;;;6.80;2.83;;;;;;;;;;5115705;27;20454;-70
2021/06/14 07:44:42;;;;;;;7.37;3.20;;;;;;;;;;5115692;27;20475;-69
2021/06/14 07:47:10;;;;;;;6.07;3.57;;;;;;;;;;5115415;27;20449;-71
2021/06/14 07:49:41;;;;;;;5.80;3.23;;;;;;;;;;5115442;27;20467;-71
2021/06/14 07:52:11;;;;;;;5.43;3.07;;;;;;;;;;5116819;27;20454;-70
2021/06/14 07:54:39;;;;;;;8.00;4.00;;;;;;;;;;5116209;27;20545;-71
2021/06/14 07:57:08;;;;;;;5.63;2.73;;;;;;;;;;5116493;27;20905;-71
2021/06/14 08:02:19;;;;;;;6.10;3.43;;;;;;;;;;5099851;28;20446;-71
2021/06/14 08:04:47;;;;;;;4.90;2.63;;;;;;;;;;5095590;28;20451;-71
2021/06/14 08:07:17;;;;;;;4.87;3.23;;;;;;;;;;5095140;28;20447;-71
2021/06/14 08:09:46;;;;;;;5.00;3.17;;;;;;;;;;5100861;27;20502;-71
2021/06/14 08:12:14;;;;;;;5.90;2.67;;;;;;;;;;5114894;27;20466;-71
2021/06/14 08:14:54;;;;;;;5.30;4.00;;;;;;;;;;5115687;27;20469;-70
2021/06/14 08:17:27;;;;;;;6.30;3.33;;;;;;;;;;5126209;27;20451;-71
2021/06/14 08:20:01;;;;;;;4.50;2.73;;;;;;;;;;5117032;27;20479;-70
2021/06/14 08:25:17;;;;;;;5.43;3.07;;;;;;;;;;5096282;28;21043;-71
2021/06/14 08:27:46;;;;;;;6.20;3.70;;;;;;;;;;5094650;28;20463;-70
2021/06/14 08:30:18;;;;;;;5.87;3.70;;;;;;;;;;5096787;28;20482;-70
2021/06/14 08:32:46;;;;;;;6.03;3.23;;;;;;;;;;5109127;27;20478;-71
2021/06/14 08:35:19;;;;;;;7.70;3.67;;;;;;;;;;5115391;27;20500;-69
2021/06/14 08:37:50;;;;;;;6.67;3.90;;;;;;;;;;5111067;27;20473;-71
2021/06/14 08:40:19;;;;;;;11.07;5.07;;;;;;;;;;5110838;27;20486;-71
2021/06/14 08:42:47;;;;;;;5.60;3.37;;;;;;;;;;5109459;28;20843;-71
2021/06/14 08:45:15;;;;;;;6.70;3.63;;;;;;;;;;5115095;27;20542;-72
2021/06/14 08:47:44;;;;;;;5.10;3.13;;;;;;;;;;5112687;27;20769;-72
2021/06/14 08:50:13;;;;;;;8.23;3.67;;;;;;;;;;5110447;27;20458;-71
2021/06/14 08:52:41;;;;;;;6.47;2.90;;;;;;;;;;5114399;27;20461;-71
2021/06/14 08:55:13;;;;;;;7.27;4.10;;;;;;;;;;5114994;27;20500;-70
2021/06/14 08:57:41;;;;;;;6.20;3.00;;;;;;;;;;5114785;27;20835;-70
2021/06/14 09:00:10;;;;;;;5.87;3.70;;;;;;;;;;5113910;27;20837;-69
2021/06/14 09:02:38;;;;;;;5.43;3.43;;;;;;;;;;5116064;27;20447;-69
2021/06/14 09:05:08;;;;;;;8.20;4.03;;;;;;;;;;5115358;27;20498;-69
2021/06/14 09:07:39;;;;;;;8.30;3.97;;;;;;;;;;5107287;27;20813;-69
2021/06/14 09:10:08;;;;;;;6.13;3.03;;;;;;;;;;5130801;27;20458;-70
2021/06/14 09:12:44;;;;;;;8.80;3.07;;;;;;;;;;5117389;27;20443;-68
2021/06/14 09:15:12;;;;;;;4.80;2.97;;;;;;;;;;5117710;27;20465;-70
2021/06/14 09:17:43;;;;;;;6.27;2.93;;;;;;;;;;5116371;27;20512;-69
2021/06/14 09:20:15;;;;;;;6.57;2.90;;;;;;;;;;5115960;27;21231;-69
2021/06/14 09:22:43;;;;;;;7.07;3.43;;;;;;;;;;5116389;27;20458;-70
2021/06/14 09:25:14;;;;;;;8.73;3.90;;;;;;;;;;5116648;27;20557;-70
2021/06/14 09:27:44;;;;;;;7.00;3.40;;;;;;;;;;5118593;27;20463;-69
2021/06/14 09:30:14;;;;;;;6.93;3.63;;;;;;;;;;5130885;27;20519;-70
2021/06/14 09:32:55;;;;;;;9.60;4.17;;;;;;;;;;5116499;27;20780;-69
2021/06/14 09:35:24;;;;;;;7.07;3.10;;;;;;;;;;5117701;27;20493;-69
2021/06/14 09:38:10;;;;;;;4.27;2.50;;;;;;;;;;5117670;27;20447;-71
2021/06/14 09:40:38;;;;;;;6.70;2.83;;;;;;;;;;5118537;27;20518;-70
2021/06/14 09:43:09;;;;;;;6.50;3.53;;;;;;;;;;5138919;27;20489;-70
2021/06/14 09:45:45;;;;;;;7.43;3.47;;;;;;;;;;5139139;27;20476;-71
2021/06/14 09:48:23;;;;;;;11.60;4.13;;;;;;;;;;5127638;27;20888;-70
2021/06/14 09:50:55;;;;;;;3.70;2.70;;;;;;;;;;5117649;27;20453;-70
2021/06/14 09:53:26;;;;;;;4.97;2.87;;;;;;;;;;5116956;27;20486;-69
2021/06/14 09:55:59;;;;;;;7.23;2.93;;;;;;;;;;5118129;27;20453;-69
2021/06/14 09:58:31;;;;;;;6.70;2.60;;;;;;;;;;5118220;27;20516;-70
2021/06/14 10:04:06;;;;;;;8.20;4.67;;;;;;;;;;5082022;28;20554;-68
2021/06/14 10:06:37;;;;;;;6.07;2.83;;;;;;;;;;5114873;27;20447;-69
2021/06/14 10:09:05;;;;;;;5.90;3.10;;;;;;;;;;5118737;27;20546;-69
2021/06/14 10:11:34;;;;;;;5.43;3.27;;;;;;;;;;5118055;27;20532;-69
2021/06/14 10:14:11;;;;;;;7.50;4.93;;;;;;;;;;5120095;27;20815;-69
2021/06/14 10:16:42;;;;;;;4.57;2.53;;;;;;;;;;5110482;27;20462;-70
2021/06/14 10:19:13;;;;;;;5.03;2.77;;;;;;;;;;5118159;27;20485;-70
2021/06/14 10:21:46;;;;;;;7.00;2.57;;;;;;;;;;5116962;27;20942;-69
2021/06/14 10:24:17;;;;;;;4.80;2.23;;;;;;;;;;5117426;27;20681;-69
2021/06/14 10:26:48;;;;;;;4.77;2.67;;;;;;;;;;5117096;27;20512;-70
2021/06/14 10:29:18;;;;;;;4.50;2.53;;;;;;;;;;5117839;27;20454;-69
2021/06/14 10:31:47;;;;;;;8.17;2.60;;;;;;;;;;5117886;27;20455;-69
2021/06/14 10:34:17;;;;;;;5.50;2.80;;;;;;;;;;5116873;27;20486;-70
2021/06/14 10:36:54;;;;;;;7.83;2.60;;;;;;;;;;5115036;27;20455;-70
2021/06/14 10:39:30;;;;;;;5.53;2.87;;;;;;;;;;5116132;27;20487;-69
2021/06/14 10:41:59;;;;;;;10.37;5.03;;;;;;;;;;5117253;27;20775;-70
2021/06/14 10:44:29;;;;;;;3.00;2.43;;;;;;;;;;5116939;27;20458;-71
2021/06/14 10:46:57;;;;;;;3.23;2.10;;;;;;;;;;5118265;27;20465;-71
2021/06/14 10:49:25;;;;;;;5.80;2.10;;;;;;;;;;5117333;27;20545;-70
2021/06/14 10:51:58;;;;;;;4.07;2.17;;;;;;;;;;5116864;27;20484;-70
2021/06/14 10:54:37;;;;;;;8.77;2.90;;;;;;;;;;5116757;27;20455;-71
2021/06/14 10:57:10;;;;;;;7.03;2.47;;;;;;;;;;5106759;28;20484;-71
2021/06/14 10:59:48;;;;;;;4.77;2.90;;;;;;;;;;5116361;27;20490;-71
2021/06/14 11:02:25;;;;;;;5.70;3.10;;;;;;;;;;5116854;27;20446;-70
2021/06/14 11:05:05;;;;;;;6.10;2.73;;;;;;;;;;5114454;27;20865;-71
2021/06/14 11:07:39;;;;;;;5.30;2.63;;;;;;;;;;5116640;27;20517;-69
2021/06/14 11:10:15;;;;;;;4.37;2.23;;;;;;;;;;5110169;27;20464;-71
2021/06/14 11:12:44;;;;;;;5.20;2.13;;;;;;;;;;5107144;27;20481;-71
2021/06/14 11:15:17;;;;;;;3.67;2.20;;;;;;;;;;5115576;27;20590;-71
2021/06/14 11:17:51;;;;;;;3.40;1.80;;;;;;;;;;5108503;27;20491;-71
2021/06/14 11:20:24;;;;;;;3.83;2.50;;;;;;;;;;5095548;28;20944;-72
2021/06/14 11:22:55;;;;;;;3.37;2.03;;;;;;;;;;5097212;28;20470;-69
2021/06/14 11:25:27;;;;;;;3.67;1.93;;;;;;;;;;5094564;28;20474;-71
2021/06/14 11:27:55;;;;;;;8.50;2.60;;;;;;;;;;5115850;27;20515;-70
2021/06/14 11:30:26;;;;;;;4.30;2.27;;;;;;;;;;5116191;27;20812;-71
2021/06/14 11:32:56;;;;;;;4.60;1.90;;;;;;;;;;5115449;27;20446;-71
2021/06/14 11:35:27;;;;;;;3.50;2.00;;;;;;;;;;5112908;27;20466;-71
2021/06/14 11:38:01;;;;;;;2.93;2.20;;;;;;;;;;5116250;27;20458;-70
2021/06/14 11:40:34;;;;;;;5.03;3.93;;;;;;;;;;5115203;27;20494;-70
2021/06/14 11:43:13;;;;;;;10.50;2.83;;;;;;;;;;5111486;28;20454;-71
2021/06/14 11:45:44;;;;;;;5.90;2.60;;;;;;;;;;5111558;27;20990;-71
2021/06/14 11:48:23;;;;;;;4.60;2.50;;;;;;;;;;5115475;27;20455;-71
2021/06/14 11:50:55;;;;;;;7.70;3.00;;;;;;;;;;5107531;27;20470;-71
2021/06/14 11:53:25;;;;;;;3.10;2.40;;;;;;;;;;5112611;27;20972;-71
2021/06/14 11:56:04;;;;;;;3.13;2.00;;;;;;;;;;5114762;27;20466;-71
2021/06/14 11:58:36;;;;;;;4.17;2.40;;;;;;;;;;5114379;27;20464;-71
2021/06/14 12:01:09;;;;;;;3.97;2.40;;;;;;;;;;5100722;27;20573;-71
2021/06/14 12:03:37;;;;;;;4.07;2.40;;;;;;;;;;5113949;27;20482;-71
2021/06/14 12:06:04;;;;;;;4.10;2.23;;;;;;;;;;5113567;27;20947;-71
2021/06/14 12:08:32;;;;;;;6.17;3.20;;;;;;;;;;5113922;27;20447;-71
2021/06/14 12:11:03;;;;;;;4.63;2.23;;;;;;;;;;5115017;27;20553;-71
2021/06/14 12:13:33;;;;;;;7.00;3.00;;;;;;;;;;5112868;27;20521;-70
2021/06/14 12:16:09;;;;;;;4.60;2.20;;;;;;;;;;5113463;27;20542;-72
2021/06/14 12:18:39;;;;;;;4.57;2.20;;;;;;;;;;5116139;27;20463;-71
2021/06/14 12:21:09;;;;;;;7.13;2.37;;;;;;;;;;5113953;27;20557;-72
2021/06/14 12:23:37;;;;;;;4.30;2.40;;;;;;;;;;5114856;27;20557;-71
2021/06/14 12:26:09;;;;;;;5.87;2.13;;;;;;;;;;5115052;27;20493;-71
2021/06/14 12:28:38;;;;;;;7.87;3.47;;;;;;;;;;5114640;27;20446;-71
2021/06/14 12:31:10;;;;;;;5.60;2.13;;;;;;;;;;5116298;27;20466;-71
2021/06/14 12:33:42;;;;;;;3.40;2.23;;;;;;;;;;5115431;27;20458;-71
2021/06/14 12:36:25;;;;;;;6.27;4.30;;;;;;;;;;5116053;27;20749;-71
2021/06/14 12:39:01;;;;;;;4.70;2.23;;;;;;;;;;5115744;27;20473;-71
2021/06/14 12:41:45;;;;;;;4.70;2.60;;;;;;;;;;5115637;27;20486;-71
2021/06/14 12:44:17;;;;;;;11.03;2.70;;;;;;;;;;5112238;27;20544;-71
2021/06/14 12:46:50;;;;;;;3.80;2.17;;;;;;;;;;5102665;27;20520;-72
2021/06/14 12:50:00;;;;;;;5.47;3.00;;;;;;;;;;5111516;27;20458;-72
2021/06/14 12:52:36;;;;;;;3.90;2.77;;;;;;;;;;5113761;27;20477;-70
2021/06/14 12:55:11;;;;;;;3.53;2.10;;;;;;;;;;5114076;28;20446;-70
2021/06/14 12:57:42;;;;;;;5.03;2.13;;;;;;;;;;5114341;27;20465;-70
2021/06/14 13:00:19;;;;;;;3.33;2.20;;;;;;;;;;5115132;27;20483;-70
2021/06/14 13:03:06;;;;;;;4.80;1.87;;;;;;;;;;5097289;28;20447;-70
2021/06/14 13:05:34;;;;;;;3.20;2.00;;;;;;;;;;5098581;28;20510;-70
2021/06/14 13:08:06;;;;;;;3.70;2.33;;;;;;;;;;5097113;28;20567;-69
2021/06/14 13:10:38;;;;;;;5.80;2.17;;;;;;;;;;5096371;28;20452;-72
2021/06/14 13:13:16;;;;;;;3.13;2.33;;;;;;;;;;5104635;28;20484;-70
2021/06/14 13:15:45;;;;;;;5.03;2.60;;;;;;;;;;5117990;27;20830;-70
2021/06/14 13:18:15;;;;;;;5.90;2.40;;;;;;;;;;5119004;27;20450;-70
2021/06/14 13:20:45;;;;;;;5.00;2.37;;;;;;;;;;5118265;27;20489;-70
2021/06/14 13:23:31;;;;;;;4.97;2.50;;;;;;;;;;5119627;27;20519;-70
2021/06/14 13:26:05;;;;;;;4.77;2.90;;;;;;;;;;5117113;27;20500;-72
2021/06/14 13:28:42;;;;;;;5.00;2.70;;;;;;;;;;5118425;27;20462;-71
2021/06/14 13:31:20;;;;;;;4.07;2.00;;;;;;;;;;5126315;27;20456;-72
2021/06/14 13:33:56;;;;;;;3.73;2.20;;;;;;;;;;5138023;27;20457;-70
2021/06/14 13:36:25;;;;;;;6.77;2.13;;;;;;;;;;5137240;27;20453;-70
2021/06/14 13:38:55;;;;;;;3.70;2.00;;;;;;;;;;5138448;27;20488;-70
2021/06/14 13:41:34;;;;;;;3.47;1.90;;;;;;;;;;5138173;27;20723;-71
2021/06/14 13:44:11;;;;;;;3.10;1.97;;;;;;;;;;5137326;27;20449;-71
2021/06/14 13:49:42;;;;;;;4.80;2.63;;;;;;;;;;5111484;28;20509;-73
2021/06/14 13:52:11;;;;;;;4.60;1.93;;;;;;;;;;5117535;27;20463;-71
2021/06/14 13:54:41;;;;;;;3.50;1.93;;;;;;;;;;5117777;27;20443;-72
2021/06/14 13:57:11;;;;;;;4.17;1.80;;;;;;;;;;5119018;27;20454;-72
2021/06/14 13:59:39;;;;;;;4.90;2.00;;;;;;;;;;5118646;27;20454;-70
2021/06/14 14:02:26;;;;;;;4.27;2.00;;;;;;;;;;5120019;27;20458;-71
2021/06/14 14:04:54;;;;;;;4.40;2.13;;;;;;;;;;5117957;27;20881;-71
2021/06/14 14:07:21;;;;;;;5.87;1.93;;;;;;;;;;5108093;27;20863;-71
2021/06/14 14:10:06;;;;;;;5.87;2.20;;;;;;;;;;5096426;28;20498;-73
2021/06/14 14:12:38;;;;;;;4.67;2.63;;;;;;;;;;5106544;27;20543;-72
2021/06/14 14:15:09;;;;;;;2.97;2.10;;;;;;;;;;5116228;27;20458;-72
2021/06/14 14:17:41;;;;;;;4.50;2.50;;;;;;;;;;5117924;27;20463;-71
2021/06/14 14:20:11;;;;;;;4.80;2.63;;;;;;;;;;5117911;27;20492;-72
2021/06/14 14:22:40;;;;;;;4.87;2.23;;;;;;;;;;5116336;27;20462;-71
2021/06/14 14:25:08;;;;;;;4.77;2.30;;;;;;;;;;5115866;27;20554;-71
2021/06/14 14:27:39;;;;;;;5.17;2.33;;;;;;;;;;5116368;27;20469;-72
2021/06/14 14:30:08;;;;;;;6.37;2.20;;;;;;;;;;5118335;27;20481;-72
2021/06/14 14:32:36;;;;;;;3.20;1.90;;;;;;;;;;5116475;27;20904;-71
2021/06/14 14:35:06;;;;;;;10.93;2.50;;;;;;;;;;5117080;27;20473;-71
2021/06/14 14:37:53;;;;;;;4.63;2.20;;;;;;;;;;5116443;27;20792;-71
2021/06/14 14:40:28;;;;;;;4.90;2.03;;;;;;;;;;5096576;28;20540;-72
2021/06/14 14:42:58;;;;;;;3.33;2.03;;;;;;;;;;5097063;28;20558;-71
2021/06/14 14:45:30;;;;;;;4.70;2.23;;;;;;;;;;5095559;28;20516;-72
2021/06/14 14:48:06;;;;;;;2.57;1.57;;;;;;;;;;5101758;27;20443;-72
2021/06/14 14:50:34;;;;;;;5.47;2.30;;;;;;;;;;5117282;27;20469;-72
2021/06/14 14:53:05;;;;;;;3.53;2.20;;;;;;;;;;5120538;27;20446;-72
2021/06/14 14:55:34;;;;;;;6.53;2.07;;;;;;;;;;5131177;27;20593;-72
2021/06/14 14:58:06;;;;;;;4.27;3.10;;;;;;;;;;5117015;27;20716;-72
2021/06/14 15:00:35;;;;;;;10.13;2.00;;;;;;;;;;5116945;27;20494;-72
2021/06/14 15:03:07;;;;;;;4.53;1.90;;;;;;;;;;5115538;27;20553;-73
2021/06/14 15:05:36;;;;;;;7.60;2.20;;;;;;;;;;5115051;27;20455;-72
2021/06/14 15:08:06;;;;;;;4.10;2.47;;;;;;;;;;5117107;27;20488;-71
2021/06/14 15:10:34;;;;;;;3.13;1.70;;;;;;;;;;5117604;27;20465;-73
2021/06/14 15:13:06;;;;;;;4.37;2.60;;;;;;;;;;5115810;27;20498;-73
2021/06/14 15:15:38;;;;;;;3.57;2.20;;;;;;;;;;5111354;27;20450;-72
2021/06/14 15:18:07;;;;;;;4.03;2.60;;;;;;;;;;5112649;27;20738;-71
2021/06/14 15:20:35;;;;;;;4.80;1.90;;;;;;;;;;5114510;27;20568;-71
2021/06/14 15:23:03;;;;;;;4.60;2.07;;;;;;;;;;5109855;27;20490;-71